Disclaimer   
PNR Super Search
 ♦ 
×
HashTag:
PNR Number:
Train Type:
Train:
From Station:
To Station:
Train Class:
2SSLCCEx3AFC2A1A3E
WL Quota:
DOJ From:
DOJ To:
Blogger:
Traveller:
Predictor:
Prediction:
WLRACConf
Stamper:
Final:
WLRACConfVoidQ-ConfUnStamped
Status:
Reaction:

Search
  Go  
 
Mon Aug 3, 2015 03:58:05 ISTHomeTrainsΣChainsAtlasPNRForumGalleryNewsFAQTripsMembersLoginFeedback
Mon Aug 3, 2015 03:58:05 IST
Post PNRPNR StatusModify Search

Ticket PNR Status Inquiry - PNR: 810-xxxxxxx (E-Ticket)

OLD STATUS

Status Last Updated on: May 21 2012 (7:50PM) IST

Date of Journey: Tue May 22, 2012   Class: Sleeper - SL   (Total Seats available for this Class/Quota: Avbl >183)
Passenger 1: SX1,33/Coach Position:11 (Booking Status: W/L 43,GNWL)
Passenger 2: SX1,36/Coach Position:11 (Booking Status: W/L 44,GNWL)
Passenger 3: SX1,34/Coach Position:11 (Booking Status: W/L 45,GNWL)
Passenger 4: SX1,35/Coach Position:11 (Booking Status: W/L 46,GNWL)
Passenger 5: SX1,37/Coach Position:11 (Booking Status: W/L 47,GNWL)
Passenger 6: SX1,38/Coach Position:11 (Booking Status: W/L 48,GNWL)
Chart PREPARED

Mumbai Bandra Terminus- Dehradun Express/19019

Travel Time: 34h 46m    85 halts    Distance: 1408 km    Avg Speed: 40 km/hr
Peak Observed Speed: n/a
Type: Mail/Express
Zone: WR/Western
Departs @ 04:04 (Avg 10m late)
Platform# 1
SMTWTFS
NVS/Navsari 
Arrives @ 14:50 +1 night (Avg 29m late)
Platform# 1
SMTWTFS
HW/Haridwar Junction 

85 halts. 215 intermediate Stations between Navsari and Haridwar Junction

Show ALL intermediate Stations  Show Old Time-Table

#TrkCodeStation NameX/OArrivesAvgDepartsAvgHaltPFDay#KmSpeedElevZoneAddress
1/==/BDTSBandra Terminus  -00:05+011-222.6379mWRMumbai 400050, Maharashtra
2/==/BVIBorivali  00:35+600:40+65m61-203.85019mWRMumbai - 400092, Maharashtra
3/==/BSRVasai RoadO  01:01+201:03+32m31-186.4747mWRVasai 401202, Maharashtra
4/==/PLGPalgharX  01:35+2001:37+222m11-146.85219mWRPalghar, Maharashtra
5/==/DRDDahanu RoadX  02:15+1202:17+122m11-113.99112mWRDahanu, Maharashtra
6/==/VAPIVapiX  02:49+1502:51+162m11-65.35427mWRVapi, Gujarat
7/==/BLValsadX  03:20+903:25+135m11-39.15715mWRValsad, Gujarat
8/==/BIMBilimora JunctionX  03:44+903:46+92m11-21.27911mWRBilimora, Gujarat
9/==/NVSNavsari»  04:02+1004:04+102m110.04914mWRNavsari, Gujarat
10/==/STSuratX  04:40+504:45+65m1129.67217mWRSurat 395001, Gujarat
11/==/KSBKosamba Junction05:11+905:13+92m--161.013930mWRKosamba, Gujarat
12/==/AKVAnkleshwar JunctionX  05:21+1705:23+162m1179.64320mWRAnkleshwar, Gujarat
13/==/BHBharuch JunctionX  05:36+1405:38+142m3188.98720mWRBharuch, Gujarat
14/==/MYGMiyagam Karjan  06:06+1506:08+152m21129.65629mWRKarjan, Gujarat
15/==/BRCVadodara JunctionXO  06:40+1506:50+1510m21159.46736mWRVadodara 390005, Gujarat
16/==/SMLASamlaya Junction  07:14+2007:16+202m21186.06767mWRVadodara, Gujarat
17/==/CPNChampaner Road Junction  07:26+1907:28+192m21197.25489mWRPanchmahal, Gujarat
18/==/DRLDerolX  07:42+1707:44+172m21209.77681mWRKalol, Gujarat
19/==/KRSAKharsaliyaX  07:54+1607:56+162m21222.427107mWRPanchmahal, Gujarat
20/==/GDAGodhra JunctionO  08:20+708:25+95m21233.358122mWRGodhra, Gujarat
21/==/SATSant Road  08:46+1008:47+111m21253.765169mWROrwara, Gujarat
22/==/PPDPiplod Junction  08:58+1208:59+151m21265.568209mWRPiplod, Gujarat
23/==/LMKLimkhedaXO  09:06+1809:08+222m21273.525205mWRLimkheda, Gujarat
24/==/MAMMangal MahudiX  09:29+1209:30+121m21282.197248mWRDabhada, Gujarat
25/==/DHDDahodXO  09:45+1809:50+185m21306.445313mWRDahod, Gujarat
26/==/BIOBordi  10:04+1510:05+151m--1317.068289mWRNational Highway 59, Gujarat
27/==/ANASAnasX  10:12+1510:13+151m--1325.073288mWRMadhya Pradesh 389154 ?, Madhya Pradesh
28/==/MGNMeghnagar  10:25+1610:27+172m--1339.560317mWRJhabua, Madhya Pradesh
29/==/THDRThandla Road  10:35+1710:36+171m--1347.564323mWRJhabua, Madhya Pradesh
30/==/PCNPanch Pipila  10:49+1810:50+191m--1361.452369mWRSH 39A, Madhya Pradesh
31/==/AGRAmargarh  11:01+1711:02+181m--1370.950410mWRSH 39A, Madhya Pradesh
32/==/BMIBamnia  11:07+1811:09+182m--1375.145392mWRBamnia, Madhya Pradesh
33/==/BOGBhairongarh  11:17+1811:18+181m--1381.165374mWRBhairongarh Railway Station, Madhya Pradesh
34/==/RTIRaotiX  11:29+2011:30+211m--1392.953409mWRState Highway 39A, Madhya Pradesh
35/==/BILDBildiX  11:38+2111:39+221m--1400.160422mWRMadhya Pradesh, Madhya Pradesh
36/==/MRNMorwaniX  11:48+2211:49+241m--1409.121459mWRDantoda, Madhya Pradesh
37/==/RTMRatlam JunctionX  12:20+2012:40+2320m51419.849495mWRRatlam 457001, Madhya Pradesh
38/==/BODBangrod  12:52+2912:53+291m--1429.755484mWRRatlam, Madhya Pradesh
39/==/RNHRunkhera  13:01+3013:02+301m--1437.057486mWRDistrict Ujjain, Madhya Pradesh
40/==/KUHKhachrodX  13:13+3113:15+312m--1447.514499mWRUjjain, Madhya Pradesh
41/==/NADNagda Junction  14:15-714:25+510m11461.357468mWRNagda, Madhya Pradesh
42/==/MEPMahidpur RoadX  14:43+414:45+52m--1478.480493mWCRGogapur, Madhya Pradesh
43/==/LNRLuni RichhaX  14:53+714:55+72m--1489.061471mWCRAlote, Madhya Pradesh
44/==/VMAVikramgarh Alot  15:08+515:10+72m21502.251443mWCRKota Division, Madhya Pradesh
45/==/THURThuria  15:19+815:21+82m--1509.971432mWCRMDR 45, Madhya Pradesh
46/==/CMUChau MahlaX  15:33+1015:35+122m21524.066426mWCRJhalawar, Rajasthan
47/==/SVASuwasraX  15:49+1215:50+141m--1539.462450mWCRSuwasra, Madhya Pradesh
48/==/SGZShamgarhX  16:03+1516:08+145m--1552.859463mWCRMandsaur, Madhya Pradesh
49/==/GOHGarothX  16:19+1416:20+151m21563.772441mWCRMadhya Pradesh 458880, Madhya Pradesh
50/==/BWMBhawani MandiX  16:39+1416:41+172m--1586.358384mWCRBhawani Mandi, Madhya Pradesh
51/==/JHWJhalawar Road  16:58+1517:00+152m--1602.857361mWCRJhalawar City, Rajasthan
52/==/RMARamganj Mandi JunctionX  17:13+1217:15+162m--1615.242355mWCRRamganj Mandi, Rajasthan
53/==/MKXMorak  17:28+1317:30+152m--1624.268337mWCRMorak, Rajasthan
54/==/DARADaraX  17:43+1917:45+202m--1639.060354mWCRDara, Rajasthan
55/==/DKNTDakaniya TalavO  18:23+1418:25+172m11677.114278mWCRKota, Rajasthan
56/==/KOTAKota JunctionX  19:05-619:35+1430m11686.436256mWCRKota, Rajasthan
57|--|GQLGurla  19:44+1719:46+172m--1691.953251mWCRSH 33, Rajasthan
58/==/KPTNKeshorai PatanXO  19:55+1619:57+162m--1699.886243mWCRSH 33, Rajasthan
59/==/LKELakheriX  20:30+2520:32+252m--1746.951223mWCRBundi, Rajasthan
60/==/IDGIndargarh Sumerganj MandiXO  20:45+2520:47+272m--1757.953247mWCRIndargarh, Rajasthan
61/==/SWMSawai Madhopur Junction  21:28+1921:30+222m--1794.179266mWCRSawai Madhopur, Rajasthan
62/==/MLZMalarnaO  21:53+2321:55+232m--1824.345236mWCRSawai Madhopur, Rajasthan
63/==/GGCGangapur City  22:40+1322:45+175m21858.089270mWCRGangapur, Rajasthan
64/==/SMBJShri Mahabirji  23:08+2323:10+232m--1892.147240mWCRKarauli, Rajasthan
65/==/HANHindaun CityO  23:23+2123:25+232m--1902.344230mWCRKarauli, Rajasthan
66/==/BXNBayana JunctionXO  00:10+1300:15+175m--2935.257198mWCRBayana, Rajasthan
67/==/BTEBharatpur JunctionX  00:59+901:00+301m--2977.225174mWCRBharatpur, Rajasthan